Airfield :
LOGIN :

Register | Disclaimer

   EN    FR    IT 

 










Legend :    VFR   Marginal VFR   IFR   Intensive IFR   Very Intensive IFR
Visi :
Ceiling :
>= 8 km
>= 3000ft
5 to 8 km
1000 to 3000 ft
1500m to 5 km
500 to 1000 ft
800 to 1500m
200 to 500 ft
< 800m
< 200 ft
Symbols :   Thunderstorms  Fog  Heavy snow  Heavy precipitations  Wind > 20 kt
SIGMETs :     Misc.  Thunderstorms  Icing  Turbulence  Mountain Waves  Volcanic Ashes







- Airport Elevation : 62 ft
- IATA code : TAN


GMTT - Tanger Ibn Batouta

CURRENT METAR :
  • 201730Z 09021G33KT CAVOK 29/17 Q1011 NOSIG

EXPIRED METARs :
  • 201700Z 09022G33KT CAVOK 29/17 Q1011 NOSIG
  • 201630Z 10024KT CAVOK 30/17 Q1011 NOSIG
  • 201600Z 09021G31KT CAVOK 31/17 Q1012 NOSIG
  • 201530Z 10022KT CAVOK 31/16 Q1012 NOSIG
  • 201500Z 10022KT CAVOK 32/16 Q1012 NOSIG

TAF TAF GMTT
Valid from the 20 at 18:00 until the 22 at 00:00 UTC


201700Z 2018/2124 10023KT CAVOK
No reported NOTAMs for that airfield.
1 SIGMET reported for the Casablanca FIR (GMMM) :
 
Embedded thunderstorms
GMMM SIGMET 06 VALID 201410/201810 GMMC
GMMM CASABLANCA FIR EMBD TS OBS E OF LINE N3355 W00250 - N3209 W006 20 - N2927 W00913 TOP FL360 STNR INTSF=



MET'MAP, your aeronautical weather chart ! - Copyright ORBIFLY December 2007 - Disclaimer

ORBIFLY MET'MAP TEAM :

Programming & Development : Alexandra Zaïnal
Concept & Development : Baudouin d'Aumeries
Co-Development & Prog : Marc-Olivier Méhu
Technical & hardware support : Manuel Goepfert

Contact : metmap@orbifly.com




SOURCES & CREDITS :

   NOAA